MMMY/MTY METAR and TAF weather

Enter ICAO airport designator
Station Type Date Time Source
MMMY METAR 2021/09/16 09:40 UTC NOAA

MMMY 160940Z 00000KT 10SM BKN030 24/22 A2987 RMK 8/500


Station Type Date Time Source
MMMY Decoded METAR 2021/09/16 09:40 UTC NOAA

Monterrey / Gen Maria, Mexico (MMMY) 25-47N 100-06W
Sep 16, 2021 - 05:40 AM EDT / 2021.09.16 0940 UTC
Wind: Calm:0
Visibility: 10 mile(s):0
Sky conditions: mostly cloudy
Temperature: 75 F (24 C)
Dew Point: 71 F (22 C)
Relative Humidity: 88%
Pressure (altimeter): 29.87 in. Hg (1011 hPa)
ob: MMMY 160940Z 00000KT 10SM BKN030 24/22 A2987 RMK 8/500
cycle: 9

Station Type Date Time Source
MMMY TAF 2021/09/16 06:57 UTC NOAA

TAF MMMY 160354Z 1606/1712 10005KT P6SM SCT030 TX32/1621Z TN22/1612Z
TEMPO 1610/1614 BKN015
FM161600 12010KT P6SM SCT030 PROB40 1622/1702 5SM TSRA BKN020CB
FM170400 08005KT P6SM SCT020 BKN200

Example: see airport list